createdAt,value
2022-11-19T00:02:12.889Z,1.33
2022-11-19T00:04:39.390Z,1.31
2022-11-19T00:07:06.015Z,1.35
2022-11-19T00:09:32.523Z,1.35
2022-11-19T00:12:17.526Z,1.29
2022-11-19T00:14:44.047Z,1.31
2022-11-19T00:17:10.614Z,1.32
2022-11-19T00:19:37.102Z,1.27
2022-11-19T00:22:03.601Z,1.29
2022-11-19T00:24:30.257Z,1.60
2022-11-19T00:26:56.738Z,1.66
2022-11-19T00:29:23.761Z,1.65
2022-11-19T00:31:50.384Z,1.59
2022-11-19T00:34:16.905Z,1.43
2022-11-19T00:36:43.471Z,1.36
2022-11-19T00:39:10.008Z,1.40
2022-11-19T00:41:36.475Z,1.43
2022-11-19T00:44:03.026Z,1.42
2022-11-19T00:46:30.692Z,1.38
2022-11-19T00:48:58.534Z,1.39
2022-11-19T00:51:26.312Z,1.58
2022-11-19T00:53:53.299Z,1.80
2022-11-19T00:56:21.063Z,1.77
2022-11-19T00:58:48.090Z,1.71
2022-11-19T01:01:15.856Z,1.70
2022-11-19T01:03:42.635Z,1.74
2022-11-19T01:06:09.947Z,1.75
2022-11-19T01:08:36.871Z,1.77
2022-11-19T01:11:04.431Z,1.78
2022-11-19T01:13:36.694Z,1.81
2022-11-19T01:16:10.441Z,1.85
2022-11-19T01:18:37.753Z,1.90
2022-11-19T01:21:04.926Z,1.95
2022-11-19T01:23:31.652Z,2.06
2022-11-19T01:25:58.194Z,2.07
2022-11-19T01:28:24.717Z,2.08
2022-11-19T01:30:51.599Z,2.08
2022-11-19T01:33:18.163Z,2.12
2022-11-19T01:35:44.672Z,2.14
2022-11-19T01:38:11.191Z,2.15
2022-11-19T01:40:44.093Z,2.15
2022-11-19T01:43:11.810Z,2.13
2022-11-19T01:45:48.305Z,2.12
2022-11-19T01:48:26.163Z,2.12
2022-11-19T01:50:57.412Z,2.10
2022-11-19T01:53:26.603Z,2.08
2022-11-19T01:55:53.730Z,2.06
2022-11-19T01:58:21.548Z,2.00
2022-11-19T02:00:48.128Z,1.93
2022-11-19T02:03:15.546Z,1.88
2022-11-19T02:05:42.719Z,1.87
2022-11-19T02:08:29.151Z,1.85
2022-11-19T02:11:10.554Z,1.79
2022-11-19T02:13:39.858Z,1.79
2022-11-19T02:16:12.706Z,1.68
2022-11-19T02:18:46.510Z,1.56
2022-11-19T02:21:43.902Z,1.30
2022-11-19T02:24:29.126Z,1.16
2022-11-19T02:27:31.022Z,1.25
2022-11-19T02:30:11.030Z,1.30
2022-11-19T02:32:40.316Z,1.11
2022-11-19T02:35:27.111Z,1.16
2022-11-19T02:38:13.753Z,1.24
2022-11-19T02:40:46.553Z,1.28
2022-11-19T02:43:13.057Z,1.30
2022-11-19T02:45:57.601Z,1.31
2022-11-19T02:48:27.827Z,1.27
2022-11-19T02:50:57.649Z,1.23
2022-11-19T02:53:24.326Z,1.25
2022-11-19T02:56:09.319Z,1.24
2022-11-19T02:58:57.407Z,1.12
2022-11-19T03:01:43.378Z,1.02
2022-11-19T03:04:30.450Z,0.83
2022-11-19T03:07:04.222Z,0.67
2022-11-19T03:09:32.075Z,0.69
2022-11-19T03:12:04.199Z,0.76
2022-11-19T03:14:53.486Z,0.76
2022-11-19T03:17:33.109Z,0.79
2022-11-19T03:20:18.041Z,0.79
2022-11-19T03:23:13.777Z,0.81
2022-11-19T03:25:53.661Z,0.84
2022-11-19T03:28:23.945Z,0.86
2022-11-19T03:30:51.892Z,0.86
2022-11-19T03:33:23.862Z,0.90
2022-11-19T03:35:53.489Z,0.84
2022-11-19T03:38:24.474Z,0.83
2022-11-19T03:40:52.260Z,0.90
2022-11-19T03:43:20.423Z,0.93
2022-11-19T03:45:48.646Z,0.76
2022-11-19T03:48:16.117Z,0.67
2022-11-19T03:50:48.797Z,0.57
2022-11-19T03:53:15.716Z,0.52
2022-11-19T03:55:57.994Z,0.52
2022-11-19T03:58:25.379Z,0.58
2022-11-19T04:00:51.985Z,0.50
2022-11-19T04:03:18.754Z,0.41
2022-11-19T04:05:45.311Z,0.37
2022-11-19T04:08:11.781Z,0.44
2022-11-19T04:10:38.356Z,0.50
2022-11-19T04:13:04.844Z,0.53
2022-11-19T04:15:31.340Z,0.44
2022-11-19T04:17:57.884Z,0.41
2022-11-19T04:20:24.365Z,0.45
2022-11-19T04:22:51.223Z,0.46
2022-11-19T04:25:17.964Z,0.44
2022-11-19T04:27:47.777Z,0.38
2022-11-19T04:30:14.703Z,0.35
2022-11-19T04:32:41.488Z,0.25
2022-11-19T04:35:08.249Z,0.23
2022-11-19T04:37:34.877Z,0.16
2022-11-19T04:40:01.423Z,0.18
2022-11-19T04:42:27.918Z,0.25
2022-11-19T04:44:54.485Z,0.33
2022-11-19T04:47:20.969Z,0.44
2022-11-19T04:49:47.580Z,0.51
2022-11-19T04:52:14.160Z,0.46
2022-11-19T04:54:40.734Z,0.37
2022-11-19T04:57:07.230Z,0.30
2022-11-19T04:59:33.752Z,0.24
2022-11-19T05:02:00.338Z,0.17
2022-11-19T05:04:26.862Z,0.15
2022-11-19T05:06:53.360Z,0.17
2022-11-19T05:09:19.987Z,0.16
2022-11-19T05:11:46.793Z,0.17
2022-11-19T05:14:13.300Z,0.10
2022-11-19T05:16:39.813Z,0.07
2022-11-19T05:19:06.363Z,0.06
2022-11-19T05:21:32.834Z,0.00
2022-11-19T05:23:59.357Z,0.02
2022-11-19T05:26:25.906Z,0.09
2022-11-19T05:28:52.430Z,0.13
2022-11-19T05:31:19.022Z,0.12
2022-11-19T05:33:45.451Z,0.12
2022-11-19T05:36:11.940Z,0.13
2022-11-19T05:38:38.598Z,0.17
2022-11-19T05:41:05.161Z,0.27
2022-11-19T05:43:31.665Z,0.35
2022-11-19T05:46:01.610Z,0.37
2022-11-19T05:48:28.402Z,0.30
2022-11-19T05:50:54.934Z,0.21
2022-11-19T05:53:21.415Z,0.21
2022-11-19T05:55:47.934Z,0.26
2022-11-19T05:58:14.497Z,0.27
2022-11-19T06:00:41.053Z,0.19
2022-11-19T06:03:08.874Z,0.11
2022-11-19T06:05:40.086Z,0.06
2022-11-19T06:08:07.163Z,0.03
2022-11-19T06:10:33.696Z,0.00
2022-11-19T06:13:00.211Z,0.16
2022-11-19T06:15:26.978Z,0.24
2022-11-19T06:17:53.490Z,0.30
2022-11-19T06:20:19.956Z,0.39
2022-11-19T06:22:46.498Z,0.47
2022-11-19T06:25:13.491Z,0.49
2022-11-19T06:27:40.035Z,0.46
2022-11-19T06:30:07.365Z,0.45
2022-11-19T06:32:34.208Z,0.42
2022-11-19T06:35:00.730Z,0.37
2022-11-19T06:37:27.337Z,0.38
2022-11-19T06:39:55.378Z,0.34
2022-11-19T06:42:37.390Z,0.29
2022-11-19T06:45:08.099Z,0.29
2022-11-19T06:47:34.608Z,0.31
2022-11-19T06:50:01.374Z,0.29
2022-11-19T06:52:27.974Z,0.25
2022-11-19T06:54:54.665Z,0.19
2022-11-19T06:57:21.238Z,0.16
2022-11-19T06:59:47.715Z,0.14
2022-11-19T07:02:17.862Z,0.19
2022-11-19T07:04:46.893Z,0.36
2022-11-19T07:07:13.392Z,0.50
2022-11-19T07:09:39.976Z,0.55
2022-11-19T07:12:07.413Z,0.58
2022-11-19T07:14:33.921Z,0.66
2022-11-19T07:17:00.515Z,0.71
2022-11-19T07:19:27.077Z,0.82
2022-11-19T07:21:53.617Z,0.94
2022-11-19T07:24:20.122Z,1.04
2022-11-19T07:26:46.662Z,1.09
2022-11-19T07:29:14.362Z,1.06
2022-11-19T07:31:41.401Z,1.10
2022-11-19T07:34:08.864Z,1.21
2022-11-19T07:36:35.588Z,1.22
2022-11-19T07:39:02.395Z,1.23
2022-11-19T07:41:47.333Z,1.29
2022-11-19T07:44:13.846Z,1.38
2022-11-19T07:46:41.124Z,1.33
2022-11-19T07:49:07.652Z,1.34
2022-11-19T07:51:34.158Z,1.36
2022-11-19T07:54:00.804Z,1.38
2022-11-19T07:56:27.361Z,1.44
2022-11-19T07:58:53.836Z,1.47
2022-11-19T08:01:23.329Z,1.45
2022-11-19T08:03:55.995Z,1.45
2022-11-19T08:06:23.843Z,1.52
2022-11-19T08:08:50.383Z,1.64
2022-11-19T08:11:17.246Z,1.70
2022-11-19T08:13:43.804Z,1.75
2022-11-19T08:16:11.520Z,1.83
2022-11-19T08:18:38.126Z,1.87
2022-11-19T08:21:09.372Z,1.83
2022-11-19T08:23:36.720Z,1.87
2022-11-19T08:26:03.370Z,1.95
2022-11-19T08:28:29.884Z,2.01
2022-11-19T08:30:57.567Z,2.04
2022-11-19T08:33:24.085Z,2.07
2022-11-19T08:35:54.251Z,2.09
2022-11-19T08:38:20.721Z,2.15
2022-11-19T08:40:51.064Z,2.19
2022-11-19T08:43:17.584Z,2.17
2022-11-19T08:45:49.272Z,2.19
2022-11-19T08:48:15.769Z,2.22
2022-11-19T08:50:42.426Z,2.25
2022-11-19T08:53:08.918Z,2.29
2022-11-19T08:55:35.480Z,2.39
2022-11-19T08:58:06.203Z,2.49
2022-11-19T09:00:33.808Z,2.59
2022-11-19T09:03:00.412Z,2.75
2022-11-19T09:05:27.057Z,2.84
2022-11-19T09:07:56.428Z,2.96
2022-11-19T09:10:22.928Z,3.08
2022-11-19T09:12:49.553Z,3.13
2022-11-19T09:15:16.040Z,3.16
2022-11-19T09:17:46.572Z,3.02
2022-11-19T09:20:13.597Z,3.06
2022-11-19T09:22:40.145Z,3.06
2022-11-19T09:25:06.972Z,3.05
2022-11-19T09:27:33.490Z,3.09
2022-11-19T09:30:00.018Z,3.11
2022-11-19T09:32:28.300Z,3.12
2022-11-19T09:34:54.797Z,3.07
2022-11-19T09:37:21.290Z,2.99
2022-11-19T09:39:47.788Z,3.00
2022-11-19T09:42:23.801Z,2.94
2022-11-19T09:45:02.355Z,3.09
2022-11-19T09:47:44.078Z,3.12
2022-11-19T09:50:16.274Z,3.02
2022-11-19T09:52:49.678Z,3.05
2022-11-19T09:55:35.000Z,3.05
2022-11-19T09:58:03.519Z,3.03
2022-11-19T10:00:31.321Z,3.06
2022-11-19T10:02:59.047Z,3.03
2022-11-19T10:05:34.892Z,3.02
2022-11-19T10:08:13.515Z,2.99
2022-11-19T10:10:51.082Z,2.88
2022-11-19T10:13:17.574Z,2.82
2022-11-19T10:16:02.446Z,2.77
2022-11-19T10:18:34.836Z,2.75
2022-11-19T10:21:01.315Z,2.60
2022-11-19T10:23:36.726Z,2.62
2022-11-19T10:26:05.147Z,2.59
2022-11-19T10:28:35.777Z,2.47
2022-11-19T10:31:12.930Z,2.52
2022-11-19T10:33:45.892Z,2.56
2022-11-19T10:36:19.778Z,2.53
2022-11-19T10:38:53.822Z,2.57
2022-11-19T10:41:32.612Z,2.52
2022-11-19T10:44:01.862Z,2.56
2022-11-19T10:46:28.698Z,2.57
2022-11-19T10:48:57.594Z,2.57
2022-11-19T10:51:26.627Z,2.62
2022-11-19T10:53:54.683Z,2.55
2022-11-19T10:56:36.927Z,2.48
2022-11-19T10:59:16.574Z,2.46
2022-11-19T11:01:44.938Z,2.19
2022-11-19T11:04:11.399Z,2.22
2022-11-19T11:06:53.313Z,2.14
2022-11-19T11:09:45.857Z,2.14
2022-11-19T11:12:33.768Z,2.02
2022-11-19T11:15:21.530Z,2.08
2022-11-19T11:17:49.511Z,2.10
2022-11-19T11:20:16.057Z,2.13
2022-11-19T11:22:43.178Z,2.07
2022-11-19T11:25:27.083Z,2.00
2022-11-19T11:28:07.452Z,1.95
2022-11-19T11:30:34.680Z,2.02
2022-11-19T11:33:19.615Z,2.06
2022-11-19T11:35:46.193Z,2.02
2022-11-19T11:38:13.633Z,2.04
2022-11-19T11:40:40.199Z,1.95
2022-11-19T11:43:06.769Z,1.88
2022-11-19T11:45:35.181Z,1.85
2022-11-19T11:48:17.087Z,1.91
2022-11-19T11:50:45.382Z,1.93
2022-11-19T11:53:14.637Z,1.94
2022-11-19T11:55:41.362Z,2.01
2022-11-19T11:58:26.296Z,2.05
2022-11-19T12:01:15.260Z,2.10
2022-11-19T12:03:55.966Z,2.10
2022-11-19T12:06:24.338Z,2.01
2022-11-19T12:08:53.886Z,2.05
2022-11-19T12:11:27.783Z,2.02
2022-11-19T12:13:54.335Z,2.04
2022-11-19T12:16:30.141Z,2.06
2022-11-19T12:19:02.523Z,2.04
2022-11-19T12:21:41.646Z,2.08
2022-11-19T12:24:18.804Z,2.05
2022-11-19T12:26:48.364Z,2.05
2022-11-19T12:29:14.821Z,2.08
2022-11-19T12:31:41.279Z,2.02
2022-11-19T12:34:26.642Z,2.11
2022-11-19T12:37:08.355Z,2.05
2022-11-19T12:39:47.485Z,2.06
2022-11-19T12:42:20.140Z,2.08
2022-11-19T12:44:53.574Z,2.07
2022-11-19T12:47:42.145Z,2.19
2022-11-19T12:50:14.512Z,2.08
2022-11-19T12:52:46.813Z,2.12
2022-11-19T12:55:19.328Z,2.02
2022-11-19T12:57:52.108Z,2.05
2022-11-19T13:00:19.382Z,2.01
2022-11-19T13:02:45.842Z,1.98
2022-11-19T13:05:30.900Z,1.94
2022-11-19T13:08:07.604Z,1.89
2022-11-19T13:10:36.633Z,1.91
2022-11-19T13:13:04.332Z,1.84
2022-11-19T13:15:37.629Z,1.88
2022-11-19T13:18:06.944Z,1.91
2022-11-19T13:20:33.382Z,1.88
2022-11-19T13:23:02.952Z,1.89
2022-11-19T13:25:39.027Z,1.92
2022-11-19T13:28:13.444Z,1.90
2022-11-19T13:30:42.107Z,1.89
2022-11-19T13:33:14.570Z,1.96
2022-11-19T13:35:44.084Z,1.95
2022-11-19T13:38:28.385Z,1.96
2022-11-19T13:41:03.937Z,2.05
2022-11-19T13:43:49.665Z,2.15
2022-11-19T13:46:27.711Z,2.06
2022-11-19T13:49:07.160Z,2.07
2022-11-19T13:51:33.623Z,2.09
2022-11-19T13:54:03.264Z,2.01
2022-11-19T13:56:47.429Z,2.00
2022-11-19T13:59:31.556Z,1.95
2022-11-19T14:02:12.107Z,1.84
2022-11-19T14:04:57.156Z,1.97
2022-11-19T14:07:42.603Z,1.91
2022-11-19T14:10:21.177Z,1.89
2022-11-19T14:13:05.875Z,1.93
2022-11-19T14:16:06.316Z,1.90
2022-11-19T14:18:59.513Z,1.90
2022-11-19T14:21:44.504Z,1.95
2022-11-19T14:24:44.680Z,1.95
2022-11-19T14:27:14.649Z,1.93
2022-11-19T14:29:44.120Z,1.88
2022-11-19T14:32:10.610Z,1.87
2022-11-19T14:34:40.375Z,1.84
2022-11-19T14:37:13.224Z,1.83
2022-11-19T14:39:41.353Z,1.82
2022-11-19T14:42:18.356Z,1.91
2022-11-19T14:44:45.493Z,1.89
2022-11-19T14:47:27.466Z,1.91
2022-11-19T14:49:59.572Z,1.94
2022-11-19T14:52:37.774Z,1.91
2022-11-19T14:55:17.872Z,1.89
2022-11-19T14:57:45.556Z,1.88
2022-11-19T15:00:15.226Z,1.87
2022-11-19T15:02:46.344Z,1.82
2022-11-19T15:05:12.813Z,1.91
2022-11-19T15:07:41.125Z,1.87
2022-11-19T15:10:10.903Z,1.88
2022-11-19T15:12:43.460Z,1.89
2022-11-19T15:15:24.942Z,1.82
2022-11-19T15:17:51.434Z,1.91
2022-11-19T15:20:28.922Z,1.90
2022-11-19T15:23:13.956Z,1.90
2022-11-19T15:25:53.102Z,1.90
2022-11-19T15:28:31.843Z,1.82
2022-11-19T15:31:18.619Z,1.84
2022-11-19T15:33:51.236Z,1.81
2022-11-19T15:36:30.201Z,1.88
2022-11-19T15:39:15.515Z,1.86
2022-11-19T15:42:00.407Z,1.89
2022-11-19T15:44:29.253Z,1.83
2022-11-19T15:46:58.832Z,1.82
2022-11-19T15:49:26.993Z,1.83
2022-11-19T15:52:00.181Z,1.83
2022-11-19T15:54:28.602Z,1.85
2022-11-19T15:56:57.348Z,1.90
2022-11-19T15:59:23.924Z,1.92
2022-11-19T16:01:59.578Z,1.91
2022-11-19T16:04:29.090Z,1.89
2022-11-19T16:06:56.038Z,1.89
2022-11-19T16:09:24.915Z,1.87
2022-11-19T16:12:10.989Z,1.89
2022-11-19T16:14:55.981Z,1.89
2022-11-19T16:17:43.437Z,1.88
2022-11-19T16:20:10.242Z,1.85
2022-11-19T16:22:40.917Z,1.90
2022-11-19T16:25:11.347Z,1.91
2022-11-19T16:27:40.721Z,1.90
2022-11-19T16:30:15.878Z,2.01
2022-11-19T16:32:42.384Z,1.95
2022-11-19T16:35:10.221Z,1.95
2022-11-19T16:37:36.904Z,1.95
2022-11-19T16:40:03.628Z,1.95
2022-11-19T16:42:31.009Z,1.95
2022-11-19T16:45:08.437Z,1.96
2022-11-19T16:47:36.906Z,1.91
2022-11-19T16:50:24.710Z,1.86
2022-11-19T16:52:51.432Z,1.89
2022-11-19T16:55:17.892Z,1.93
2022-11-19T16:57:48.179Z,1.96
2022-11-19T17:00:22.026Z,1.91
2022-11-19T17:02:49.634Z,1.83
2022-11-19T17:05:18.827Z,1.86
2022-11-19T17:07:47.529Z,1.92
2022-11-19T17:10:14.032Z,1.92
2022-11-19T17:13:02.826Z,1.93
2022-11-19T17:15:55.415Z,1.98
2022-11-19T17:18:35.293Z,1.97
2022-11-19T17:21:34.437Z,1.95
2022-11-19T17:24:01.018Z,1.94
2022-11-19T17:26:28.081Z,1.98
2022-11-19T17:29:07.418Z,1.94
2022-11-19T17:31:33.917Z,1.89
2022-11-19T17:34:12.454Z,1.89
2022-11-19T17:36:39.929Z,1.87
2022-11-19T17:39:13.448Z,1.90
2022-11-19T17:41:58.882Z,1.89
2022-11-19T17:44:34.710Z,1.90
2022-11-19T17:47:20.700Z,1.89
2022-11-19T17:49:48.774Z,1.91
2022-11-19T17:52:35.541Z,1.91
2022-11-19T17:55:10.309Z,1.91
2022-11-19T17:57:42.339Z,1.91
2022-11-19T18:00:09.968Z,1.88
2022-11-19T18:02:36.546Z,1.87
2022-11-19T18:05:12.471Z,1.95
2022-11-19T18:07:39.024Z,1.85
2022-11-19T18:10:05.783Z,1.88
2022-11-19T18:12:32.302Z,1.90
2022-11-19T18:15:01.969Z,1.90
2022-11-19T18:17:28.819Z,1.95
2022-11-19T18:19:55.367Z,1.78
2022-11-19T18:22:22.002Z,1.81
2022-11-19T18:24:49.446Z,1.84
2022-11-19T18:27:17.702Z,1.90
2022-11-19T18:29:44.271Z,1.87
2022-11-19T18:32:11.811Z,1.91
2022-11-19T18:34:38.515Z,1.94
2022-11-19T18:37:05.005Z,1.98
2022-11-19T18:39:31.492Z,1.99
2022-11-19T18:41:58.057Z,2.02
2022-11-19T18:44:33.534Z,2.01
2022-11-19T18:47:07.526Z,1.97
2022-11-19T18:49:34.986Z,1.96
2022-11-19T18:52:02.542Z,1.97
2022-11-19T18:54:29.151Z,1.99
2022-11-19T18:56:55.726Z,1.95
2022-11-19T18:59:22.666Z,1.94
2022-11-19T19:01:50.007Z,1.93
2022-11-19T19:04:16.633Z,1.98
2022-11-19T19:06:43.171Z,1.98
2022-11-19T19:09:11.239Z,1.97
2022-11-19T19:11:56.336Z,1.94
2022-11-19T19:14:22.901Z,1.95
2022-11-19T19:16:51.002Z,1.95
2022-11-19T19:19:20.332Z,1.96
2022-11-19T19:21:47.543Z,1.99
2022-11-19T19:24:14.627Z,2.01
2022-11-19T19:26:41.470Z,1.99
2022-11-19T19:29:08.017Z,1.96
2022-11-19T19:31:34.642Z,1.96
2022-11-19T19:34:01.619Z,1.95
2022-11-19T19:36:28.427Z,1.97
2022-11-19T19:38:55.247Z,1.98
2022-11-19T19:41:25.705Z,1.95
2022-11-19T19:43:53.313Z,1.86
2022-11-19T19:46:21.090Z,1.83
2022-11-19T19:48:48.972Z,1.87
2022-11-19T19:51:16.689Z,1.87
2022-11-19T19:53:43.720Z,1.91
2022-11-19T19:56:12.431Z,1.96
2022-11-19T19:58:39.224Z,1.99
2022-11-19T20:01:05.782Z,2.01
2022-11-19T20:03:32.497Z,2.05
2022-11-19T20:05:59.029Z,2.06
2022-11-19T20:08:25.689Z,2.11
2022-11-19T20:10:52.233Z,2.12
2022-11-19T20:13:27.481Z,2.14
2022-11-19T20:15:57.449Z,2.15
2022-11-19T20:18:24.662Z,2.17
2022-11-19T20:20:51.303Z,2.17
2022-11-19T20:23:18.045Z,2.21
2022-11-19T20:25:44.615Z,2.21
2022-11-19T20:28:11.141Z,2.22
2022-11-19T20:30:37.767Z,2.19
2022-11-19T20:33:04.310Z,2.15
2022-11-19T20:35:30.865Z,2.14
2022-11-19T20:38:02.217Z,2.14
2022-11-19T20:40:29.907Z,2.16
2022-11-19T20:43:14.876Z,2.19
2022-11-19T20:45:41.382Z,2.19
2022-11-19T20:48:07.866Z,2.11
2022-11-19T20:50:34.492Z,2.13
2022-11-19T20:53:01.971Z,2.17
2022-11-19T20:55:28.527Z,2.12
2022-11-19T20:57:55.933Z,2.05
2022-11-19T21:00:22.461Z,1.99
2022-11-19T21:02:48.974Z,1.90
2022-11-19T21:05:15.475Z,1.88
2022-11-19T21:07:42.006Z,1.77
2022-11-19T21:10:08.821Z,1.75
2022-11-19T21:12:35.336Z,1.80
2022-11-19T21:15:02.276Z,1.82
2022-11-19T21:17:28.843Z,1.80
2022-11-19T21:19:55.348Z,1.75
2022-11-19T21:22:21.916Z,1.76
2022-11-19T21:24:48.372Z,1.75
2022-11-19T21:27:14.878Z,1.79
2022-11-19T21:29:41.679Z,1.74
2022-11-19T21:32:08.318Z,1.74
2022-11-19T21:34:34.811Z,1.72
2022-11-19T21:37:01.393Z,1.77
2022-11-19T21:39:27.922Z,1.75
2022-11-19T21:41:54.474Z,1.78
2022-11-19T21:44:22.060Z,1.78
2022-11-19T21:46:48.807Z,1.76
2022-11-19T21:49:15.282Z,1.73
2022-11-19T21:51:41.730Z,1.68
2022-11-19T21:54:08.281Z,1.60
2022-11-19T21:56:38.595Z,1.70
2022-11-19T21:59:06.112Z,1.52
2022-11-19T22:01:32.678Z,1.43
2022-11-19T22:03:59.134Z,1.45
2022-11-19T22:06:25.684Z,1.34
2022-11-19T22:08:52.190Z,1.29
2022-11-19T22:11:30.896Z,1.27
2022-11-19T22:13:59.461Z,1.14
2022-11-19T22:16:26.426Z,1.08
2022-11-19T22:18:52.886Z,1.06
2022-11-19T22:21:19.465Z,1.04
2022-11-19T22:23:46.252Z,1.00
2022-11-19T22:26:12.914Z,0.98
2022-11-19T22:28:39.720Z,0.94
2022-11-19T22:31:06.349Z,0.91
2022-11-19T22:33:33.905Z,0.99
2022-11-19T22:36:06.479Z,0.92
2022-11-19T22:38:36.529Z,0.89
2022-11-19T22:41:04.329Z,0.88
2022-11-19T22:43:31.970Z,0.84
2022-11-19T22:45:59.682Z,0.82
2022-11-19T22:48:30.059Z,0.87
2022-11-19T22:50:56.601Z,0.90
2022-11-19T22:53:23.534Z,0.88
2022-11-19T22:55:50.218Z,0.88
2022-11-19T22:58:16.777Z,0.90
2022-11-19T23:00:44.704Z,0.84
2022-11-19T23:03:11.680Z,0.83
2022-11-19T23:05:38.434Z,0.82
2022-11-19T23:08:05.677Z,0.82
2022-11-19T23:10:35.028Z,0.80
2022-11-19T23:13:20.596Z,0.77
2022-11-19T23:15:59.831Z,0.74
2022-11-19T23:18:26.619Z,0.71
2022-11-19T23:21:00.355Z,0.70
2022-11-19T23:23:26.985Z,0.78
2022-11-19T23:25:57.407Z,0.77
2022-11-19T23:28:24.489Z,0.75
2022-11-19T23:30:50.985Z,0.73
2022-11-19T23:33:17.769Z,0.75
2022-11-19T23:35:44.344Z,0.75
2022-11-19T23:38:10.872Z,0.69
2022-11-19T23:40:37.698Z,0.72
2022-11-19T23:43:04.757Z,0.74
2022-11-19T23:45:33.621Z,0.74
2022-11-19T23:48:00.093Z,0.72
2022-11-19T23:50:26.615Z,0.72
2022-11-19T23:52:53.100Z,0.76
2022-11-19T23:55:19.604Z,0.71
2022-11-19T23:57:46.637Z,0.57
